sensor_id;sensor_type;location;lat;lon;timestamp;pressure;altitude;pressure_sealevel;temperature;humidity
5905;BME280;2978;42.012;24.880;2023-03-17T00:00:44;98958.44;;;8.30;74.79
5905;BME280;2978;42.012;24.880;2023-03-17T00:03:37;98958.50;;;8.35;73.98
5905;BME280;2978;42.012;24.880;2023-03-17T00:06:05;98958.91;;;8.44;74.38
5905;BME280;2978;42.012;24.880;2023-03-17T00:08:33;98962.06;;;8.57;73.76
5905;BME280;2978;42.012;24.880;2023-03-17T00:10:59;98960.25;;;8.68;73.67
5905;BME280;2978;42.012;24.880;2023-03-17T00:13:25;98959.91;;;8.59;73.53
5905;BME280;2978;42.012;24.880;2023-03-17T00:15:58;98970.28;;;8.57;73.34
5905;BME280;2978;42.012;24.880;2023-03-17T00:18:24;98967.50;;;8.52;73.70
5905;BME280;2978;42.012;24.880;2023-03-17T00:20:50;98968.50;;;8.46;73.58
5905;BME280;2978;42.012;24.880;2023-03-17T00:23:22;98970.94;;;8.43;73.37
5905;BME280;2978;42.012;24.880;2023-03-17T00:25:49;98966.53;;;8.42;72.84
5905;BME280;2978;42.012;24.880;2023-03-17T00:28:22;98960.34;;;8.51;72.34
5905;BME280;2978;42.012;24.880;2023-03-17T00:30:52;98958.16;;;8.53;71.87
5905;BME280;2978;42.012;24.880;2023-03-17T00:33:22;98960.44;;;8.61;70.88
5905;BME280;2978;42.012;24.880;2023-03-17T00:35:48;98957.78;;;8.66;70.46
5905;BME280;2978;42.012;24.880;2023-03-17T00:38:16;98954.47;;;8.64;70.69
5905;BME280;2978;42.012;24.880;2023-03-17T00:40:42;98965.13;;;8.61;70.65
5905;BME280;2978;42.012;24.880;2023-03-17T00:43:09;98960.97;;;8.58;71.70
5905;BME280;2978;42.012;24.880;2023-03-17T00:45:35;98963.03;;;8.46;73.37
5905;BME280;2978;42.012;24.880;2023-03-17T00:48:00;98960.16;;;8.36;74.01
5905;BME280;2978;42.012;24.880;2023-03-17T00:50:27;98954.97;;;8.18;75.79
5905;BME280;2978;42.012;24.880;2023-03-17T00:52:55;98957.47;;;8.20;75.78
5905;BME280;2978;42.012;24.880;2023-03-17T00:55:23;98960.22;;;8.41;76.06
5905;BME280;2978;42.012;24.880;2023-03-17T00:57:49;98966.88;;;8.45;74.87
5905;BME280;2978;42.012;24.880;2023-03-17T01:02:44;98972.66;;;8.49;73.81
5905;BME280;2978;42.012;24.880;2023-03-17T01:05:10;98974.88;;;8.52;74.54
5905;BME280;2978;42.012;24.880;2023-03-17T01:07:37;98974.66;;;8.58;74.14
5905;BME280;2978;42.012;24.880;2023-03-17T01:10:03;98983.78;;;8.64;73.66
5905;BME280;2978;42.012;24.880;2023-03-17T01:12:34;98979.13;;;8.64;73.47
5905;BME280;2978;42.012;24.880;2023-03-17T01:14:59;98987.34;;;8.64;72.56
5905;BME280;2978;42.012;24.880;2023-03-17T01:17:25;98984.16;;;8.72;71.25
5905;BME280;2978;42.012;24.880;2023-03-17T01:19:51;98986.00;;;8.67;70.99
5905;BME280;2978;42.012;24.880;2023-03-17T01:22:16;98992.84;;;8.64;70.98
5905;BME280;2978;42.012;24.880;2023-03-17T01:24:42;98998.19;;;8.54;70.67
5905;BME280;2978;42.012;24.880;2023-03-17T01:27:08;99003.53;;;8.44;70.69
5905;BME280;2978;42.012;24.880;2023-03-17T01:29:33;98996.63;;;8.20;71.63
5905;BME280;2978;42.012;24.880;2023-03-17T01:31:59;99001.47;;;8.13;71.96
5905;BME280;2978;42.012;24.880;2023-03-17T01:34:24;98997.88;;;8.13;72.25
5905;BME280;2978;42.012;24.880;2023-03-17T01:36:49;99001.53;;;7.96;73.39
5905;BME280;2978;42.012;24.880;2023-03-17T01:39:15;98998.47;;;7.76;73.84
5905;BME280;2978;42.012;24.880;2023-03-17T01:41:40;99001.41;;;7.70;74.63
5905;BME280;2978;42.012;24.880;2023-03-17T01:44:14;98998.06;;;7.68;74.18
5905;BME280;2978;42.012;24.880;2023-03-17T01:46:41;99011.59;;;7.58;74.35
5905;BME280;2978;42.012;24.880;2023-03-17T01:49:27;99006.88;;;7.53;75.36
5905;BME280;2978;42.012;24.880;2023-03-17T01:52:08;99009.84;;;7.52;75.26
5905;BME280;2978;42.012;24.880;2023-03-17T01:54:40;99012.50;;;7.47;75.35
5905;BME280;2978;42.012;24.880;2023-03-17T01:57:32;99015.41;;;7.57;75.05
5905;BME280;2978;42.012;24.880;2023-03-17T02:00:11;99024.84;;;7.66;75.21
5905;BME280;2978;42.012;24.880;2023-03-17T02:02:40;99019.47;;;7.71;74.89
5905;BME280;2978;42.012;24.880;2023-03-17T02:05:09;99019.47;;;7.71;74.35
5905;BME280;2978;42.012;24.880;2023-03-17T02:07:36;99016.47;;;7.72;74.45
5905;BME280;2978;42.012;24.880;2023-03-17T02:10:03;99021.53;;;7.80;74.69
5905;BME280;2978;42.012;24.880;2023-03-17T02:12:29;99029.56;;;7.87;74.84
5905;BME280;2978;42.012;24.880;2023-03-17T02:14:55;99024.56;;;8.00;74.45
5905;BME280;2978;42.012;24.880;2023-03-17T02:17:23;99032.09;;;8.10;73.65
5905;BME280;2978;42.012;24.880;2023-03-17T02:19:50;99026.19;;;8.18;73.36
5905;BME280;2978;42.012;24.880;2023-03-17T02:22:17;99029.22;;;8.22;72.57
5905;BME280;2978;42.012;24.880;2023-03-17T02:24:48;99036.75;;;8.26;72.43
5905;BME280;2978;42.012;24.880;2023-03-17T02:30:07;99041.63;;;8.24;72.35
5905;BME280;2978;42.012;24.880;2023-03-17T02:32:34;99040.28;;;8.27;71.69
5905;BME280;2978;42.012;24.880;2023-03-17T02:35:01;99049.47;;;8.37;71.53
5905;BME280;2978;42.012;24.880;2023-03-17T02:37:26;99048.88;;;8.35;71.99
5905;BME280;2978;42.012;24.880;2023-03-17T02:39:52;99049.78;;;8.41;71.26
5905;BME280;2978;42.012;24.880;2023-03-17T02:42:18;99045.22;;;8.46;72.19
5905;BME280;2978;42.012;24.880;2023-03-17T02:44:43;99051.41;;;8.37;72.07
5905;BME280;2978;42.012;24.880;2023-03-17T02:47:10;99050.50;;;8.31;72.37
5905;BME280;2978;42.012;24.880;2023-03-17T02:49:38;99051.31;;;8.32;72.38
5905;BME280;2978;42.012;24.880;2023-03-17T02:52:04;99066.69;;;8.33;73.22
5905;BME280;2978;42.012;24.880;2023-03-17T02:54:30;99063.63;;;8.29;73.08
5905;BME280;2978;42.012;24.880;2023-03-17T02:56:56;99067.00;;;8.36;73.22
5905;BME280;2978;42.012;24.880;2023-03-17T02:59:21;99063.28;;;8.47;73.35
5905;BME280;2978;42.012;24.880;2023-03-17T03:01:47;99071.50;;;8.47;73.41
5905;BME280;2978;42.012;24.880;2023-03-17T03:04:13;99066.63;;;8.49;73.37
5905;BME280;2978;42.012;24.880;2023-03-17T03:06:39;99059.88;;;8.57;73.86
5905;BME280;2978;42.012;24.880;2023-03-17T03:09:07;99070.06;;;8.61;73.48
5905;BME280;2978;42.012;24.880;2023-03-17T03:11:33;99078.84;;;8.63;73.77
5905;BME280;2978;42.012;24.880;2023-03-17T03:13:59;99080.00;;;8.67;73.52
5905;BME280;2978;42.012;24.880;2023-03-17T03:16:24;99076.38;;;8.62;74.00
5905;BME280;2978;42.012;24.880;2023-03-17T03:18:50;99083.06;;;8.71;73.86
5905;BME280;2978;42.012;24.880;2023-03-17T03:21:15;99083.13;;;8.76;73.56
5905;BME280;2978;42.012;24.880;2023-03-17T03:23:41;99084.91;;;8.65;74.04
5905;BME280;2978;42.012;24.880;2023-03-17T03:26:07;99083.06;;;8.49;74.09
5905;BME280;2978;42.012;24.880;2023-03-17T03:28:33;99087.47;;;8.50;74.00
5905;BME280;2978;42.012;24.880;2023-03-17T03:30:59;99099.00;;;8.52;74.73
5905;BME280;2978;42.012;24.880;2023-03-17T03:33:24;99093.41;;;8.64;74.43
5905;BME280;2978;42.012;24.880;2023-03-17T03:35:50;99094.50;;;8.63;74.33
5905;BME280;2978;42.012;24.880;2023-03-17T03:38:15;99093.06;;;8.60;72.38
5905;BME280;2978;42.012;24.880;2023-03-17T03:40:41;99096.91;;;8.59;71.36
5905;BME280;2978;42.012;24.880;2023-03-17T03:43:06;99091.16;;;8.61;71.03
5905;BME280;2978;42.012;24.880;2023-03-17T03:45:32;99088.16;;;8.62;71.54
5905;BME280;2978;42.012;24.880;2023-03-17T03:47:58;99086.66;;;8.71;73.12
5905;BME280;2978;42.012;24.880;2023-03-17T03:50:24;99093.03;;;8.77;72.64
5905;BME280;2978;42.012;24.880;2023-03-17T03:52:49;99093.84;;;8.77;72.69
5905;BME280;2978;42.012;24.880;2023-03-17T03:55:15;99099.31;;;8.77;73.13
5905;BME280;2978;42.012;24.880;2023-03-17T03:57:41;99092.06;;;8.66;72.53
5905;BME280;2978;42.012;24.880;2023-03-17T04:00:07;99085.38;;;8.57;73.12
5905;BME280;2978;42.012;24.880;2023-03-17T04:02:33;99103.53;;;8.63;74.00
5905;BME280;2978;42.012;24.880;2023-03-17T04:04:59;99103.25;;;8.65;73.81
5905;BME280;2978;42.012;24.880;2023-03-17T04:07:25;99101.94;;;8.67;74.44
5905;BME280;2978;42.012;24.880;2023-03-17T04:09:50;99103.16;;;8.76;73.87
5905;BME280;2978;42.012;24.880;2023-03-17T04:12:16;99104.41;;;8.69;73.43
5905;BME280;2978;42.012;24.880;2023-03-17T04:14:42;99115.13;;;8.70;73.40
5905;BME280;2978;42.012;24.880;2023-03-17T04:17:11;99120.03;;;8.68;73.89
5905;BME280;2978;42.012;24.880;2023-03-17T04:19:37;99118.97;;;8.69;74.29
5905;BME280;2978;42.012;24.880;2023-03-17T04:22:04;99122.75;;;8.68;74.54
5905;BME280;2978;42.012;24.880;2023-03-17T04:24:30;99127.69;;;8.66;73.49
5905;BME280;2978;42.012;24.880;2023-03-17T04:26:55;99132.44;;;8.54;72.10
5905;BME280;2978;42.012;24.880;2023-03-17T04:29:21;99136.00;;;8.71;71.58
5905;BME280;2978;42.012;24.880;2023-03-17T04:31:47;99131.56;;;8.70;71.17
5905;BME280;2978;42.012;24.880;2023-03-17T04:34:14;99144.78;;;8.73;70.32
5905;BME280;2978;42.012;24.880;2023-03-17T04:36:40;99135.34;;;8.64;70.35
5905;BME280;2978;42.012;24.880;2023-03-17T04:39:07;99136.00;;;8.71;70.36
5905;BME280;2978;42.012;24.880;2023-03-17T04:41:33;99134.81;;;8.67;70.37
5905;BME280;2978;42.012;24.880;2023-03-17T04:43:58;99150.28;;;8.73;70.62
5905;BME280;2978;42.012;24.880;2023-03-17T04:46:24;99151.47;;;8.82;72.10
5905;BME280;2978;42.012;24.880;2023-03-17T04:48:49;99152.09;;;8.89;71.56
5905;BME280;2978;42.012;24.880;2023-03-17T04:51:15;99155.50;;;8.96;70.91
5905;BME280;2978;42.012;24.880;2023-03-17T04:53:42;99161.88;;;9.02;70.79
5905;BME280;2978;42.012;24.880;2023-03-17T04:56:09;99167.78;;;9.16;70.31
5905;BME280;2978;42.012;24.880;2023-03-17T04:58:34;99169.63;;;9.10;69.62
5905;BME280;2978;42.012;24.880;2023-03-17T05:01:00;99169.72;;;9.15;69.12
5905;BME280;2978;42.012;24.880;2023-03-17T05:03:26;99171.16;;;9.23;68.44
5905;BME280;2978;42.012;24.880;2023-03-17T05:05:52;99179.66;;;9.21;69.04
5905;BME280;2978;42.012;24.880;2023-03-17T05:08:18;99179.41;;;9.23;69.63
5905;BME280;2978;42.012;24.880;2023-03-17T05:10:44;99183.75;;;9.19;70.01
5905;BME280;2978;42.012;24.880;2023-03-17T05:13:09;99191.16;;;9.18;69.46
5905;BME280;2978;42.012;24.880;2023-03-17T05:15:35;99194.84;;;9.07;69.00
5905;BME280;2978;42.012;24.880;2023-03-17T05:18:01;99194.97;;;8.95;68.89
5905;BME280;2978;42.012;24.880;2023-03-17T05:20:27;99197.84;;;9.05;68.48
5905;BME280;2978;42.012;24.880;2023-03-17T05:22:52;99199.44;;;9.23;67.53
5905;BME280;2978;42.012;24.880;2023-03-17T05:25:18;99202.56;;;9.32;66.37
5905;BME280;2978;42.012;24.880;2023-03-17T05:27:43;99205.56;;;9.52;64.81
5905;BME280;2978;42.012;24.880;2023-03-17T05:30:09;99203.97;;;9.61;64.58
5905;BME280;2978;42.012;24.880;2023-03-17T05:32:35;99206.50;;;9.62;64.68
5905;BME280;2978;42.012;24.880;2023-03-17T05:35:00;99211.09;;;9.83;65.52
5905;BME280;2978;42.012;24.880;2023-03-17T05:37:26;99214.81;;;9.99;65.40
5905;BME280;2978;42.012;24.880;2023-03-17T05:39:51;99209.47;;;10.09;64.88
5905;BME280;2978;42.012;24.880;2023-03-17T05:42:18;99214.34;;;10.07;65.64
5905;BME280;2978;42.012;24.880;2023-03-17T05:44:43;99223.19;;;10.09;66.62
5905;BME280;2978;42.012;24.880;2023-03-17T05:47:09;99224.84;;;10.10;66.23
5905;BME280;2978;42.012;24.880;2023-03-17T05:49:35;99226.19;;;10.07;65.54
5905;BME280;2978;42.012;24.880;2023-03-17T05:52:01;99230.91;;;10.12;65.05
5905;BME280;2978;42.012;24.880;2023-03-17T05:54:27;99223.28;;;10.19;64.49
5905;BME280;2978;42.012;24.880;2023-03-17T05:56:52;99229.41;;;10.26;62.28
5905;BME280;2978;42.012;24.880;2023-03-17T05:59:18;99223.97;;;10.36;61.31
5905;BME280;2978;42.012;24.880;2023-03-17T06:01:43;99225.75;;;10.52;60.52
5905;BME280;2978;42.012;24.880;2023-03-17T06:04:09;99220.63;;;10.66;59.66
5905;BME280;2978;42.012;24.880;2023-03-17T06:06:35;99239.72;;;10.77;59.57
5905;BME280;2978;42.012;24.880;2023-03-17T06:09:01;99243.50;;;11.13;58.55
5905;BME280;2978;42.012;24.880;2023-03-17T06:11:27;99240.03;;;11.38;57.79
5905;BME280;2978;42.012;24.880;2023-03-17T06:13:52;99233.78;;;11.47;57.16
5905;BME280;2978;42.012;24.880;2023-03-17T06:16:18;99239.59;;;11.56;56.92
5905;BME280;2978;42.012;24.880;2023-03-17T06:18:44;99251.97;;;11.63;57.10
5905;BME280;2978;42.012;24.880;2023-03-17T06:21:10;99254.50;;;11.65;56.01
5905;BME280;2978;42.012;24.880;2023-03-17T06:23:36;99246.47;;;11.58;56.32
5905;BME280;2978;42.012;24.880;2023-03-17T06:26:02;99259.06;;;11.49;56.46
5905;BME280;2978;42.012;24.880;2023-03-17T06:28:27;99261.72;;;11.24;56.22
5905;BME280;2978;42.012;24.880;2023-03-17T06:30:54;99265.25;;;11.19;56.72
5905;BME280;2978;42.012;24.880;2023-03-17T06:33:19;99267.22;;;11.24;56.66
5905;BME280;2978;42.012;24.880;2023-03-17T06:35:44;99275.78;;;11.27;56.05
5905;BME280;2978;42.012;24.880;2023-03-17T06:38:10;99272.47;;;11.25;56.15
5905;BME280;2978;42.012;24.880;2023-03-17T06:40:37;99276.56;;;11.23;56.03
5905;BME280;2978;42.012;24.880;2023-03-17T06:43:03;99275.22;;;11.25;55.34
5905;BME280;2978;42.012;24.880;2023-03-17T06:45:29;99271.38;;;11.31;54.92
5905;BME280;2978;42.012;24.880;2023-03-17T06:47:54;99269.88;;;11.56;54.68
5905;BME280;2978;42.012;24.880;2023-03-17T06:50:20;99273.53;;;11.66;54.47
5905;BME280;2978;42.012;24.880;2023-03-17T06:52:46;99276.59;;;11.80;54.04
5905;BME280;2978;42.012;24.880;2023-03-17T06:55:11;99282.09;;;11.80;53.23
5905;BME280;2978;42.012;24.880;2023-03-17T06:57:37;99280.50;;;11.94;52.71
5905;BME280;2978;42.012;24.880;2023-03-17T07:00:04;99292.69;;;12.13;51.44
5905;BME280;2978;42.012;24.880;2023-03-17T07:02:33;99296.03;;;12.45;50.67
5905;BME280;2978;42.012;24.880;2023-03-17T07:04:59;99294.38;;;12.59;50.42
5905;BME280;2978;42.012;24.880;2023-03-17T07:07:26;99282.28;;;12.65;49.20
5905;BME280;2978;42.012;24.880;2023-03-17T07:09:51;99295.50;;;12.93;48.82
5905;BME280;2978;42.012;24.880;2023-03-17T07:12:18;99289.41;;;13.01;48.40
5905;BME280;2978;42.012;24.880;2023-03-17T07:14:44;99295.50;;;13.08;47.46
5905;BME280;2978;42.012;24.880;2023-03-17T07:17:10;99287.50;;;12.97;47.29
5905;BME280;2978;42.012;24.880;2023-03-17T07:19:37;99298.53;;;12.97;47.20
5905;BME280;2978;42.012;24.880;2023-03-17T07:22:02;99288.31;;;12.92;46.81
5905;BME280;2978;42.012;24.880;2023-03-17T07:24:28;99297.97;;;12.75;46.96
5905;BME280;2978;42.012;24.880;2023-03-17T07:26:53;99298.81;;;12.75;46.59
5905;BME280;2978;42.012;24.880;2023-03-17T07:29:19;99302.94;;;12.32;42.73
5905;BME280;2978;42.012;24.880;2023-03-17T07:31:45;99299.84;;;12.24;42.73
5905;BME280;2978;42.012;24.880;2023-03-17T07:34:11;99303.72;;;12.23;42.62
5905;BME280;2978;42.012;24.880;2023-03-17T07:36:37;99293.84;;;12.47;41.68
5905;BME280;2978;42.012;24.880;2023-03-17T07:39:03;99297.16;;;12.59;41.67
5905;BME280;2978;42.012;24.880;2023-03-17T07:41:28;99302.13;;;12.72;43.09
5905;BME280;2978;42.012;24.880;2023-03-17T07:43:54;99298.25;;;12.63;43.55
5905;BME280;2978;42.012;24.880;2023-03-17T07:46:20;99298.22;;;12.23;43.45
5905;BME280;2978;42.012;24.880;2023-03-17T07:48:46;99299.22;;;11.92;43.60
5905;BME280;2978;42.012;24.880;2023-03-17T07:51:13;99284.88;;;11.85;42.67
5905;BME280;2978;42.012;24.880;2023-03-17T07:53:39;99294.84;;;11.96;43.35
5905;BME280;2978;42.012;24.880;2023-03-17T07:56:05;99297.25;;;11.82;43.61
5905;BME280;2978;42.012;24.880;2023-03-17T07:58:31;99297.66;;;12.21;43.22
5905;BME280;2978;42.012;24.880;2023-03-17T08:00:56;99299.34;;;12.57;42.54
5905;BME280;2978;42.012;24.880;2023-03-17T08:03:22;99295.50;;;12.78;42.13
5905;BME280;2978;42.012;24.880;2023-03-17T08:05:55;99296.06;;;12.95;42.56
5905;BME280;2978;42.012;24.880;2023-03-17T08:08:22;99300.75;;;12.75;42.64
5905;BME280;2978;42.012;24.880;2023-03-17T08:10:49;99304.91;;;12.62;42.33
5905;BME280;2978;42.012;24.880;2023-03-17T08:13:15;99285.81;;;12.25;42.93
5905;BME280;2978;42.012;24.880;2023-03-17T08:15:40;99296.59;;;12.42;43.46
5905;BME280;2978;42.012;24.880;2023-03-17T08:18:06;99296.63;;;12.62;42.43
5905;BME280;2978;42.012;24.880;2023-03-17T08:20:32;99301.00;;;12.78;42.65
5905;BME280;2978;42.012;24.880;2023-03-17T08:22:58;99305.16;;;12.71;42.11
5905;BME280;2978;42.012;24.880;2023-03-17T08:25:24;99300.19;;;12.68;41.38
5905;BME280;2978;42.012;24.880;2023-03-17T08:27:49;99298.81;;;12.85;41.79
5905;BME280;2978;42.012;24.880;2023-03-17T08:30:15;99293.84;;;13.22;40.83
5905;BME280;2978;42.012;24.880;2023-03-17T08:32:41;99299.00;;;13.59;39.14
5905;BME280;2978;42.012;24.880;2023-03-17T08:35:10;99286.44;;;13.87;38.61
5905;BME280;2978;42.012;24.880;2023-03-17T08:37:36;99291.38;;;13.90;38.40
5905;BME280;2978;42.012;24.880;2023-03-17T08:40:03;99281.28;;;13.60;38.77
5905;BME280;2978;42.012;24.880;2023-03-17T08:42:29;99280.03;;;13.17;40.28
5905;BME280;2978;42.012;24.880;2023-03-17T08:44:55;99276.44;;;12.87;41.00
5905;BME280;2978;42.012;24.880;2023-03-17T08:47:21;99286.66;;;13.16;40.73
5905;BME280;2978;42.012;24.880;2023-03-17T08:49:47;99280.56;;;13.34;40.77
5905;BME280;2978;42.012;24.880;2023-03-17T08:52:14;99281.34;;;13.50;40.33
5905;BME280;2978;42.012;24.880;2023-03-17T08:54:40;99270.81;;;13.57;39.76
5905;BME280;2978;42.012;24.880;2023-03-17T08:57:06;99280.97;;;13.72;39.72
5905;BME280;2978;42.012;24.880;2023-03-17T08:59:32;99283.44;;;13.78;38.61
5905;BME280;2978;42.012;24.880;2023-03-17T09:01:57;99276.72;;;13.94;38.64
5905;BME280;2978;42.012;24.880;2023-03-17T09:04:23;99281.91;;;14.06;38.34
5905;BME280;2978;42.012;24.880;2023-03-17T09:06:50;99273.59;;;14.11;38.57
5905;BME280;2978;42.012;24.880;2023-03-17T09:09:15;99273.84;;;14.14;38.47
5905;BME280;2978;42.012;24.880;2023-03-17T09:11:41;99279.22;;;13.96;39.60
5905;BME280;2978;42.012;24.880;2023-03-17T09:14:07;99283.72;;;13.77;39.48
5905;BME280;2978;42.012;24.880;2023-03-17T09:16:33;99276.53;;;13.76;39.88
5905;BME280;2978;42.012;24.880;2023-03-17T09:18:59;99274.38;;;13.68;39.52
5905;BME280;2978;42.012;24.880;2023-03-17T09:21:25;99278.06;;;13.38;39.30
5905;BME280;2978;42.012;24.880;2023-03-17T09:23:51;99278.91;;;13.38;39.27
5905;BME280;2978;42.012;24.880;2023-03-17T09:26:17;99276.75;;;13.05;39.94
5905;BME280;2978;42.012;24.880;2023-03-17T09:28:44;99276.19;;;12.83;40.57
5905;BME280;2978;42.012;24.880;2023-03-17T09:31:10;99276.75;;;12.60;40.75
5905;BME280;2978;42.012;24.880;2023-03-17T09:33:40;99275.09;;;12.54;41.15
5905;BME280;2978;42.012;24.880;2023-03-17T09:36:06;99276.75;;;12.60;40.43
5905;BME280;2978;42.012;24.880;2023-03-17T09:38:32;99278.41;;;12.66;40.82
5905;BME280;2978;42.012;24.880;2023-03-17T09:51:36;99271.78;;;13.07;38.78
5905;BME280;2978;42.012;24.880;2023-03-17T09:54:09;99267.03;;;13.28;38.61
5905;BME280;2978;42.012;24.880;2023-03-17T09:56:37;99266.47;;;13.31;39.02
5905;BME280;2978;42.012;24.880;2023-03-17T09:59:17;99255.66;;;13.44;37.94
5905;BME280;2978;42.012;24.880;2023-03-17T10:01:52;99261.66;;;13.72;37.48
5905;BME280;2978;42.012;24.880;2023-03-17T10:04:17;99264.22;;;14.07;36.40
5905;BME280;2978;42.012;24.880;2023-03-17T10:06:44;99262.31;;;14.02;36.74
5905;BME280;2978;42.012;24.880;2023-03-17T10:09:20;99261.66;;;13.72;37.22
5905;BME280;2978;42.012;24.880;2023-03-17T10:11:57;99260.97;;;13.90;36.68
5905;BME280;2978;42.012;24.880;2023-03-17T10:14:40;99263.06;;;14.13;36.09
5905;BME280;2978;42.012;24.880;2023-03-17T10:17:16;99256.41;;;14.19;35.81
5905;BME280;2978;42.012;24.880;2023-03-17T10:19:59;99259.47;;;14.12;36.07
5905;BME280;2978;42.012;24.880;2023-03-17T10:22:33;99245.03;;;14.25;36.44
5905;BME280;2978;42.012;24.880;2023-03-17T10:25:12;99244.03;;;14.50;36.10
5905;BME280;2978;42.012;24.880;2023-03-17T10:27:40;99263.31;;;14.16;36.48
5905;BME280;2978;42.012;24.880;2023-03-17T10:30:19;99252.53;;;14.20;36.96
5905;BME280;2978;42.012;24.880;2023-03-17T10:32:45;99254.16;;;14.31;36.32
5905;BME280;2978;42.012;24.880;2023-03-17T10:35:11;99244.63;;;14.42;36.81
5905;BME280;2978;42.012;24.880;2023-03-17T10:37:39;99251.13;;;14.66;36.13
5905;BME280;2978;42.012;24.880;2023-03-17T10:40:07;99240.00;;;14.71;36.17
5905;BME280;2978;42.012;24.880;2023-03-17T10:42:46;99249.22;;;14.90;35.25
5905;BME280;2978;42.012;24.880;2023-03-17T10:45:29;99246.56;;;14.80;35.33
5905;BME280;2978;42.012;24.880;2023-03-17T10:47:56;99242.38;;;14.49;35.88
5905;BME280;2978;42.012;24.880;2023-03-17T10:50:26;99252.19;;;14.36;36.22
5905;BME280;2978;42.012;24.880;2023-03-17T10:53:08;99247.56;;;14.17;36.32
5905;BME280;2978;42.012;24.880;2023-03-17T10:55:40;99245.66;;;14.12;36.59
5905;BME280;2978;42.012;24.880;2023-03-17T10:58:14;99242.56;;;14.24;36.36
5905;BME280;2978;42.012;24.880;2023-03-17T11:00:54;99236.28;;;14.52;36.79
5905;BME280;2978;42.012;24.880;2023-03-17T11:03:41;99242.50;;;14.34;37.37
5905;BME280;2978;42.012;24.880;2023-03-17T11:06:12;99234.94;;;14.44;37.35
5905;BME280;2978;42.012;24.880;2023-03-17T11:08:52;99241.88;;;14.47;37.23
5905;BME280;2978;42.012;24.880;2023-03-17T11:11:28;99239.19;;;14.32;37.91
5905;BME280;2978;42.012;24.880;2023-03-17T11:14:16;99225.22;;;14.52;37.76
5905;BME280;2978;42.012;24.880;2023-03-17T11:16:59;99229.47;;;14.68;37.83
5905;BME280;2978;42.012;24.880;2023-03-17T11:19:34;99229.72;;;14.77;37.90
5905;BME280;2978;42.012;24.880;2023-03-17T11:22:10;99226.44;;;14.70;37.38
5905;BME280;2978;42.012;24.880;2023-03-17T11:27:35;99219.88;;;14.60;37.26
5905;BME280;2978;42.012;24.880;2023-03-17T11:45:28;99229.13;;;15.32;35.64
5905;BME280;2978;42.012;24.880;2023-03-17T11:53:37;99204.28;;;14.98;36.18
5905;BME280;2978;42.012;24.880;2023-03-17T11:56:15;99213.03;;;15.10;35.87
5905;BME280;2978;42.012;24.880;2023-03-17T11:58:50;99219.22;;;15.02;35.73
5905;BME280;2978;42.012;24.880;2023-03-17T12:01:25;99211.00;;;14.92;36.03
5905;BME280;2978;42.012;24.880;2023-03-17T12:06:53;99202.66;;;15.21;35.67
5905;BME280;2978;42.012;24.880;2023-03-17T12:09:36;99212.97;;;15.15;35.65
5905;BME280;2978;42.012;24.880;2023-03-17T12:12:05;99214.41;;;14.84;36.03
5905;BME280;2978;42.012;24.880;2023-03-17T12:14:40;99211.88;;;14.59;36.46
5905;BME280;2978;42.012;24.880;2023-03-17T12:19:58;99213.75;;;14.63;36.16
5905;BME280;2978;42.012;24.880;2023-03-17T12:22:36;99212.63;;;14.70;36.35
5905;BME280;2978;42.012;24.880;2023-03-17T12:25:56;99213.06;;;14.48;36.23
5905;BME280;2978;42.012;24.880;2023-03-17T12:28:26;99202.41;;;14.65;35.95
5905;BME280;2978;42.012;24.880;2023-03-17T12:36:19;99204.69;;;14.87;35.64
5905;BME280;2978;42.012;24.880;2023-03-17T12:47:42;99206.00;;;14.65;35.81
5905;BME280;2978;42.012;24.880;2023-03-17T12:55:30;99200.72;;;14.35;37.11
5905;BME280;2978;42.012;24.880;2023-03-17T12:57:59;99204.81;;;14.43;37.55
5905;BME280;2978;42.012;24.880;2023-03-17T13:00:29;99199.28;;;14.43;37.71
5905;BME280;2978;42.012;24.880;2023-03-17T13:03:25;99197.22;;;14.58;37.64
5905;BME280;2978;42.012;24.880;2023-03-17T13:06:00;99208.56;;;14.57;37.63
5905;BME280;2978;42.012;24.880;2023-03-17T13:08:40;99202.78;;;14.53;37.76
5905;BME280;2978;42.012;24.880;2023-03-17T13:11:28;99200.56;;;14.55;37.16
5905;BME280;2978;42.012;24.880;2023-03-17T13:14:21;99200.38;;;14.76;37.15
5905;BME280;2978;42.012;24.880;2023-03-17T13:16:48;99207.22;;;14.83;36.77
5905;BME280;2978;42.012;24.880;2023-03-17T13:19:24;99201.56;;;14.93;36.64
5905;BME280;2978;42.012;24.880;2023-03-17T13:22:22;99205.59;;;15.06;36.86
5905;BME280;2978;42.012;24.880;2023-03-17T13:24:45;99200.84;;;15.11;36.70
5905;BME280;2978;42.012;24.880;2023-03-17T13:29:56;99203.97;;;14.76;37.00
5905;BME280;2978;42.012;24.880;2023-03-17T13:35:12;99199.25;;;14.77;37.13
5905;BME280;2978;42.012;24.880;2023-03-17T13:45:49;99198.06;;;14.54;36.97
5905;BME280;2978;42.012;24.880;2023-03-17T13:48:34;99191.47;;;14.50;37.44
5905;BME280;2978;42.012;24.880;2023-03-17T13:53:36;99210.22;;;14.58;37.21
5905;BME280;2978;42.012;24.880;2023-03-17T13:56:09;99203.59;;;14.54;37.35
5905;BME280;2978;42.012;24.880;2023-03-17T13:58:57;99199.63;;;14.65;37.31
5905;BME280;2978;42.012;24.880;2023-03-17T14:01:35;99210.44;;;14.61;37.18
5905;BME280;2978;42.012;24.880;2023-03-17T14:04:04;99204.72;;;14.53;37.35
5905;BME280;2978;42.012;24.880;2023-03-17T14:06:30;99210.94;;;14.40;37.41
5905;BME280;2978;42.012;24.880;2023-03-17T14:09:07;99214.84;;;14.34;37.86
5905;BME280;2978;42.012;24.880;2023-03-17T14:11:38;99214.38;;;14.17;38.04
5905;BME280;2978;42.012;24.880;2023-03-17T14:14:28;99210.66;;;13.98;38.24
5905;BME280;2978;42.012;24.880;2023-03-17T14:17:10;99209.66;;;13.79;38.68
5905;BME280;2978;42.012;24.880;2023-03-17T14:19:36;99207.03;;;13.48;39.27
5905;BME280;2978;42.012;24.880;2023-03-17T14:22:23;99221.53;;;13.10;40.57
5905;BME280;2978;42.012;24.880;2023-03-17T14:24:54;99224.03;;;12.77;41.11
5905;BME280;2978;42.012;24.880;2023-03-17T14:27:21;99225.16;;;12.61;41.42
5905;BME280;2978;42.012;24.880;2023-03-17T14:29:48;99226.00;;;12.46;41.66
5905;BME280;2978;42.012;24.880;2023-03-17T14:32:16;99222.97;;;12.37;41.30
5905;BME280;2978;42.012;24.880;2023-03-17T14:35:01;99222.41;;;12.25;41.78
5905;BME280;2978;42.012;24.880;2023-03-17T14:37:27;99234.25;;;12.16;42.41
5905;BME280;2978;42.012;24.880;2023-03-17T14:39:54;99216.06;;;12.20;41.67
5905;BME280;2978;42.012;24.880;2023-03-17T14:42:27;99227.94;;;12.25;41.92
5905;BME280;2978;42.012;24.880;2023-03-17T14:45:07;99224.28;;;12.00;42.20